sensor_id;sensor_type;location;lat;lon;timestamp;temperature;humidity
12948;DHT22;6539;49.476;8.484;2024-03-23T00:52:57;12.90;99.90
12948;DHT22;6539;49.476;8.484;2024-03-23T00:55:48;12.80;99.90
12948;DHT22;6539;49.476;8.484;2024-03-23T00:58:34;12.80;99.90
12948;DHT22;6539;49.476;8.484;2024-03-23T01:01:20;12.80;99.90
12948;DHT22;6539;49.476;8.484;2024-03-23T01:04:09;12.80;99.90
12948;DHT22;6539;49.476;8.484;2024-03-23T01:06:55;12.80;99.90
12948;DHT22;6539;49.476;8.484;2024-03-23T01:09:43;12.70;99.90
12948;DHT22;6539;49.476;8.484;2024-03-23T01:12:32;12.70;99.90
12948;DHT22;6539;49.476;8.484;2024-03-23T01:15:18;12.70;99.90
12948;DHT22;6539;49.476;8.484;2024-03-23T01:18:04;12.60;99.90
12948;DHT22;6539;49.476;8.484;2024-03-23T01:20:50;12.70;99.90
12948;DHT22;6539;49.476;8.484;2024-03-23T01:23:39;12.60;99.90
12948;DHT22;6539;49.476;8.484;2024-03-23T01:26:25;12.70;99.90
12948;DHT22;6539;49.476;8.484;2024-03-23T01:29:16;12.70;99.90
12948;DHT22;6539;49.476;8.484;2024-03-23T01:32:02;12.60;99.90
12948;DHT22;6539;49.476;8.484;2024-03-23T01:34:48;12.60;99.90
12948;DHT22;6539;49.476;8.484;2024-03-23T01:37:34;12.70;99.90
12948;DHT22;6539;49.476;8.484;2024-03-23T01:40:21;12.70;99.90
12948;DHT22;6539;49.476;8.484;2024-03-23T01:43:07;12.70;99.90
12948;DHT22;6539;49.476;8.484;2024-03-23T01:45:54;12.70;99.90
12948;DHT22;6539;49.476;8.484;2024-03-23T01:48:40;12.70;99.90
12948;DHT22;6539;49.476;8.484;2024-03-23T01:51:27;12.70;99.90
12948;DHT22;6539;49.476;8.484;2024-03-23T01:54:14;12.70;99.90
12948;DHT22;6539;49.476;8.484;2024-03-23T01:57:00;12.70;99.90
12948;DHT22;6539;49.476;8.484;2024-03-23T01:59:49;12.70;99.90
12948;DHT22;6539;49.476;8.484;2024-03-23T02:02:35;12.60;99.90
12948;DHT22;6539;49.476;8.484;2024-03-23T02:05:24;12.70;99.90
12948;DHT22;6539;49.476;8.484;2024-03-23T02:08:10;12.70;99.90
12948;DHT22;6539;49.476;8.484;2024-03-23T02:11:01;12.70;99.90
12948;DHT22;6539;49.476;8.484;2024-03-23T02:13:50;12.70;99.90
12948;DHT22;6539;49.476;8.484;2024-03-23T02:16:38;12.80;99.90
12948;DHT22;6539;49.476;8.484;2024-03-23T02:19:24;12.80;99.90
12948;DHT22;6539;49.476;8.484;2024-03-23T02:22:14;12.70;99.90
12948;DHT22;6539;49.476;8.484;2024-03-23T02:25:02;12.70;99.90
12948;DHT22;6539;49.476;8.484;2024-03-23T02:27:51;12.70;99.90
12948;DHT22;6539;49.476;8.484;2024-03-23T02:30:39;12.70;99.90
12948;DHT22;6539;49.476;8.484;2024-03-23T02:33:28;12.80;99.90
12948;DHT22;6539;49.476;8.484;2024-03-23T02:36:14;12.70;99.90
12948;DHT22;6539;49.476;8.484;2024-03-23T02:39:00;12.70;99.90
12948;DHT22;6539;49.476;8.484;2024-03-23T02:41:46;12.70;99.90
12948;DHT22;6539;49.476;8.484;2024-03-23T02:44:33;12.80;99.90
12948;DHT22;6539;49.476;8.484;2024-03-23T02:47:19;12.90;99.90
12948;DHT22;6539;49.476;8.484;2024-03-23T02:50:08;12.90;99.90
12948;DHT22;6539;49.476;8.484;2024-03-23T02:52:57;12.90;99.90
12948;DHT22;6539;49.476;8.484;2024-03-23T02:55:45;12.90;99.90
12948;DHT22;6539;49.476;8.484;2024-03-23T02:58:31;13.00;99.90
12948;DHT22;6539;49.476;8.484;2024-03-23T03:01:17;13.00;99.90
12948;DHT22;6539;49.476;8.484;2024-03-23T03:04:06;13.00;99.90
12948;DHT22;6539;49.476;8.484;2024-03-23T03:06:52;13.00;99.90
12948;DHT22;6539;49.476;8.484;2024-03-23T03:09:38;13.10;99.90
12948;DHT22;6539;49.476;8.484;2024-03-23T03:12:24;13.10;99.90
12948;DHT22;6539;49.476;8.484;2024-03-23T03:15:10;13.10;99.90
12948;DHT22;6539;49.476;8.484;2024-03-23T03:17:59;13.20;99.90
12948;DHT22;6539;49.476;8.484;2024-03-23T03:20:46;13.20;99.90
12948;DHT22;6539;49.476;8.484;2024-03-23T03:23:32;13.20;99.90
12948;DHT22;6539;49.476;8.484;2024-03-23T03:26:18;13.30;99.90
12948;DHT22;6539;49.476;8.484;2024-03-23T03:29:04;13.20;99.90
12948;DHT22;6539;49.476;8.484;2024-03-23T03:31:50;13.20;99.90
12948;DHT22;6539;49.476;8.484;2024-03-23T03:34:39;13.20;99.90
12948;DHT22;6539;49.476;8.484;2024-03-23T03:37:25;13.20;99.90
12948;DHT22;6539;49.476;8.484;2024-03-23T03:40:12;13.20;99.90
12948;DHT22;6539;49.476;8.484;2024-03-23T03:43:00;13.20;99.90
12948;DHT22;6539;49.476;8.484;2024-03-23T03:45:52;13.10;99.90
12948;DHT22;6539;49.476;8.484;2024-03-23T03:48:39;13.10;99.90
12948;DHT22;6539;49.476;8.484;2024-03-23T03:51:25;13.10;99.90
12948;DHT22;6539;49.476;8.484;2024-03-23T03:54:13;13.10;99.90
12948;DHT22;6539;49.476;8.484;2024-03-23T03:56:59;13.10;99.90
12948;DHT22;6539;49.476;8.484;2024-03-23T03:59:45;13.10;99.90
12948;DHT22;6539;49.476;8.484;2024-03-23T04:02:31;13.10;99.90
12948;DHT22;6539;49.476;8.484;2024-03-23T04:05:17;13.00;99.90
12948;DHT22;6539;49.476;8.484;2024-03-23T04:08:07;13.10;99.90
12948;DHT22;6539;49.476;8.484;2024-03-23T04:10:53;13.00;99.90
12948;DHT22;6539;49.476;8.484;2024-03-23T04:13:39;13.00;99.90
12948;DHT22;6539;49.476;8.484;2024-03-23T04:16:34;13.00;99.90
12948;DHT22;6539;49.476;8.484;2024-03-23T04:19:21;13.00;99.90
12948;DHT22;6539;49.476;8.484;2024-03-23T04:22:07;13.00;99.90
12948;DHT22;6539;49.476;8.484;2024-03-23T04:24:54;13.00;99.90
12948;DHT22;6539;49.476;8.484;2024-03-23T04:27:41;13.00;99.90
12948;DHT22;6539;49.476;8.484;2024-03-23T04:30:27;12.90;99.90
12948;DHT22;6539;49.476;8.484;2024-03-23T04:33:15;12.90;99.90
12948;DHT22;6539;49.476;8.484;2024-03-23T04:36:01;12.90;99.90
12948;DHT22;6539;49.476;8.484;2024-03-23T04:38:47;12.80;99.90
12948;DHT22;6539;49.476;8.484;2024-03-23T04:41:35;12.80;99.90
12948;DHT22;6539;49.476;8.484;2024-03-23T04:44:24;12.80;99.90
12948;DHT22;6539;49.476;8.484;2024-03-23T04:47:10;12.90;99.90
12948;DHT22;6539;49.476;8.484;2024-03-23T04:49:57;12.80;99.90
12948;DHT22;6539;49.476;8.484;2024-03-23T04:52:45;12.70;99.90
12948;DHT22;6539;49.476;8.484;2024-03-23T04:55:31;12.60;99.90
12948;DHT22;6539;49.476;8.484;2024-03-23T04:58:20;12.70;99.90
12948;DHT22;6539;49.476;8.484;2024-03-23T05:01:06;12.60;99.90
12948;DHT22;6539;49.476;8.484;2024-03-23T05:03:54;12.60;99.90
12948;DHT22;6539;49.476;8.484;2024-03-23T05:06:43;12.50;99.90
12948;DHT22;6539;49.476;8.484;2024-03-23T05:09:33;12.40;99.90
12948;DHT22;6539;49.476;8.484;2024-03-23T05:12:19;12.40;99.90
12948;DHT22;6539;49.476;8.484;2024-03-23T05:15:08;12.30;99.90
12948;DHT22;6539;49.476;8.484;2024-03-23T05:17:54;12.20;99.90
12948;DHT22;6539;49.476;8.484;2024-03-23T05:20:42;12.10;99.90
12948;DHT22;6539;49.476;8.484;2024-03-23T05:23:29;12.20;99.90
12948;DHT22;6539;49.476;8.484;2024-03-23T05:26:18;12.10;99.90
12948;DHT22;6539;49.476;8.484;2024-03-23T05:29:04;11.60;99.90
12948;DHT22;6539;49.476;8.484;2024-03-23T05:31:51;10.90;99.90
12948;DHT22;6539;49.476;8.484;2024-03-23T05:34:37;10.60;99.90
12948;DHT22;6539;49.476;8.484;2024-03-23T05:37:24;10.50;99.90
12948;DHT22;6539;49.476;8.484;2024-03-23T05:40:10;10.30;99.90
12948;DHT22;6539;49.476;8.484;2024-03-23T05:42:58;10.20;99.90
12948;DHT22;6539;49.476;8.484;2024-03-23T05:45:47;10.10;99.90
12948;DHT22;6539;49.476;8.484;2024-03-23T05:48:39;10.10;99.90
12948;DHT22;6539;49.476;8.484;2024-03-23T05:51:25;10.00;99.90
12948;DHT22;6539;49.476;8.484;2024-03-23T05:54:11;10.00;99.90
12948;DHT22;6539;49.476;8.484;2024-03-23T05:56:57;10.00;99.90
12948;DHT22;6539;49.476;8.484;2024-03-23T05:59:44;10.00;99.90
12948;DHT22;6539;49.476;8.484;2024-03-23T06:02:30;10.10;99.90
12948;DHT22;6539;49.476;8.484;2024-03-23T06:05:16;10.10;99.90
12948;DHT22;6539;49.476;8.484;2024-03-23T06:08:04;10.10;99.90
12948;DHT22;6539;49.476;8.484;2024-03-23T06:10:50;10.00;99.90
12948;DHT22;6539;49.476;8.484;2024-03-23T06:13:39;10.00;99.90
12948;DHT22;6539;49.476;8.484;2024-03-23T06:16:25;9.90;99.90
12948;DHT22;6539;49.476;8.484;2024-03-23T06:19:14;9.90;99.90
12948;DHT22;6539;49.476;8.484;2024-03-23T06:22:00;9.80;99.90
12948;DHT22;6539;49.476;8.484;2024-03-23T06:24:46;9.80;99.90
12948;DHT22;6539;49.476;8.484;2024-03-23T06:27:35;9.80;99.90
12948;DHT22;6539;49.476;8.484;2024-03-23T06:30:21;9.80;99.90
12948;DHT22;6539;49.476;8.484;2024-03-23T06:33:07;9.70;99.90
12948;DHT22;6539;49.476;8.484;2024-03-23T06:35:53;9.70;99.90
12948;DHT22;6539;49.476;8.484;2024-03-23T06:38:39;9.60;99.90
12948;DHT22;6539;49.476;8.484;2024-03-23T06:41:26;9.60;99.90
12948;DHT22;6539;49.476;8.484;2024-03-23T06:44:14;9.50;99.90
12948;DHT22;6539;49.476;8.484;2024-03-23T06:47:00;9.50;99.90
12948;DHT22;6539;49.476;8.484;2024-03-23T06:49:46;9.50;99.90
12948;DHT22;6539;49.476;8.484;2024-03-23T06:52:32;9.50;99.90
12948;DHT22;6539;49.476;8.484;2024-03-23T06:55:19;9.50;99.90
12948;DHT22;6539;49.476;8.484;2024-03-23T06:58:05;9.40;99.90
12948;DHT22;6539;49.476;8.484;2024-03-23T07:00:51;9.40;99.90
12948;DHT22;6539;49.476;8.484;2024-03-23T07:03:37;9.60;99.90
12948;DHT22;6539;49.476;8.484;2024-03-23T07:06:25;9.60;99.90
12948;DHT22;6539;49.476;8.484;2024-03-23T07:09:12;9.60;99.90
12948;DHT22;6539;49.476;8.484;2024-03-23T07:11:58;9.60;99.90
12948;DHT22;6539;49.476;8.484;2024-03-23T07:14:49;9.60;99.90
12948;DHT22;6539;49.476;8.484;2024-03-23T07:17:35;9.60;99.90
12948;DHT22;6539;49.476;8.484;2024-03-23T07:20:21;9.50;99.90
12948;DHT22;6539;49.476;8.484;2024-03-23T07:23:09;9.50;99.90
12948;DHT22;6539;49.476;8.484;2024-03-23T07:26:02;9.30;99.90
12948;DHT22;6539;49.476;8.484;2024-03-23T07:28:50;9.40;99.90
12948;DHT22;6539;49.476;8.484;2024-03-23T07:31:36;9.50;99.90
12948;DHT22;6539;49.476;8.484;2024-03-23T07:34:22;9.60;99.90
12948;DHT22;6539;49.476;8.484;2024-03-23T07:37:10;9.60;99.90
12948;DHT22;6539;49.476;8.484;2024-03-23T07:39:56;9.70;99.90
12948;DHT22;6539;49.476;8.484;2024-03-23T07:42:45;9.60;99.90
12948;DHT22;6539;49.476;8.484;2024-03-23T07:45:31;9.60;99.90
12948;DHT22;6539;49.476;8.484;2024-03-23T07:48:17;9.60;99.90
12948;DHT22;6539;49.476;8.484;2024-03-23T07:53:54;9.60;99.90
12948;DHT22;6539;49.476;8.484;2024-03-23T07:56:40;9.50;99.90
12948;DHT22;6539;49.476;8.484;2024-03-23T07:59:26;9.50;99.90
12948;DHT22;6539;49.476;8.484;2024-03-23T08:02:12;9.70;99.90
12948;DHT22;6539;49.476;8.484;2024-03-23T08:04:58;9.90;99.90
12948;DHT22;6539;49.476;8.484;2024-03-23T08:07:44;9.90;99.90
12948;DHT22;6539;49.476;8.484;2024-03-23T08:10:30;9.90;99.90
12948;DHT22;6539;49.476;8.484;2024-03-23T08:13:16;9.80;99.90
12948;DHT22;6539;49.476;8.484;2024-03-23T08:16:03;9.90;99.90
12948;DHT22;6539;49.476;8.484;2024-03-23T08:18:53;10.10;99.90
12948;DHT22;6539;49.476;8.484;2024-03-23T08:21:42;10.20;99.90
12948;DHT22;6539;49.476;8.484;2024-03-23T08:24:30;10.40;99.90
12948;DHT22;6539;49.476;8.484;2024-03-23T08:27:16;10.60;99.90
12948;DHT22;6539;49.476;8.484;2024-03-23T08:30:02;10.60;99.90
12948;DHT22;6539;49.476;8.484;2024-03-23T08:32:49;10.50;99.90
12948;DHT22;6539;49.476;8.484;2024-03-23T08:35:35;10.30;99.90
12948;DHT22;6539;49.476;8.484;2024-03-23T08:38:21;10.20;99.90
12948;DHT22;6539;49.476;8.484;2024-03-23T08:41:09;10.20;99.90
12948;DHT22;6539;49.476;8.484;2024-03-23T08:43:56;10.40;99.90
12948;DHT22;6539;49.476;8.484;2024-03-23T08:46:45;10.60;99.90
12948;DHT22;6539;49.476;8.484;2024-03-23T08:49:31;10.60;99.90
12948;DHT22;6539;49.476;8.484;2024-03-23T08:52:17;10.70;99.90
12948;DHT22;6539;49.476;8.484;2024-03-23T08:55:03;10.80;99.90
12948;DHT22;6539;49.476;8.484;2024-03-23T08:57:52;10.60;99.90
12948;DHT22;6539;49.476;8.484;2024-03-23T09:00:38;10.70;99.90
12948;DHT22;6539;49.476;8.484;2024-03-23T09:03:24;10.80;99.90
12948;DHT22;6539;49.476;8.484;2024-03-23T09:06:13;10.90;99.90
12948;DHT22;6539;49.476;8.484;2024-03-23T09:09:00;11.10;99.90
12948;DHT22;6539;49.476;8.484;2024-03-23T09:11:46;11.10;99.90
12948;DHT22;6539;49.476;8.484;2024-03-23T09:14:35;11.20;99.90
12948;DHT22;6539;49.476;8.484;2024-03-23T09:17:21;11.20;99.90
12948;DHT22;6539;49.476;8.484;2024-03-23T09:20:07;11.10;99.90
12948;DHT22;6539;49.476;8.484;2024-03-23T09:22:54;11.00;99.90
12948;DHT22;6539;49.476;8.484;2024-03-23T09:25:40;10.90;99.90
12948;DHT22;6539;49.476;8.484;2024-03-23T09:28:26;10.80;99.90
12948;DHT22;6539;49.476;8.484;2024-03-23T09:31:12;10.80;99.90
12948;DHT22;6539;49.476;8.484;2024-03-23T09:34:01;10.80;99.90
12948;DHT22;6539;49.476;8.484;2024-03-23T09:36:50;10.90;99.90
12948;DHT22;6539;49.476;8.484;2024-03-23T09:39:39;11.00;99.90
12948;DHT22;6539;49.476;8.484;2024-03-23T09:42:25;11.10;99.90
12948;DHT22;6539;49.476;8.484;2024-03-23T09:45:21;11.10;99.90
12948;DHT22;6539;49.476;8.484;2024-03-23T09:48:10;11.10;99.90
12948;DHT22;6539;49.476;8.484;2024-03-23T09:50:57;11.10;99.90
12948;DHT22;6539;49.476;8.484;2024-03-23T09:53:49;11.00;99.90
12948;DHT22;6539;49.476;8.484;2024-03-23T09:56:37;11.00;99.90
12948;DHT22;6539;49.476;8.484;2024-03-23T09:59:24;10.90;99.90
12948;DHT22;6539;49.476;8.484;2024-03-23T10:02:13;10.90;99.90
12948;DHT22;6539;49.476;8.484;2024-03-23T10:05:20;10.90;99.90
12948;DHT22;6539;49.476;8.484;2024-03-23T10:11:15;11.10;99.90
12948;DHT22;6539;49.476;8.484;2024-03-23T10:14:02;11.30;99.90
12948;DHT22;6539;49.476;8.484;2024-03-23T10:16:48;11.10;99.90
12948;DHT22;6539;49.476;8.484;2024-03-23T10:19:34;11.00;99.90
12948;DHT22;6539;49.476;8.484;2024-03-23T10:22:23;11.20;99.90
12948;DHT22;6539;49.476;8.484;2024-03-23T10:25:13;11.40;99.90
12948;DHT22;6539;49.476;8.484;2024-03-23T10:28:01;11.50;99.90
12948;DHT22;6539;49.476;8.484;2024-03-23T10:30:47;11.50;99.90
12948;DHT22;6539;49.476;8.484;2024-03-23T10:33:33;11.30;99.90
12948;DHT22;6539;49.476;8.484;2024-03-23T10:36:24;11.10;99.90
12948;DHT22;6539;49.476;8.484;2024-03-23T10:39:14;11.20;99.90
12948;DHT22;6539;49.476;8.484;2024-03-23T10:42:04;11.30;99.90
12948;DHT22;6539;49.476;8.484;2024-03-23T10:44:51;11.20;99.90
12948;DHT22;6539;49.476;8.484;2024-03-23T10:47:41;11.60;99.90
12948;DHT22;6539;49.476;8.484;2024-03-23T10:50:28;12.70;99.90
12948;DHT22;6539;49.476;8.484;2024-03-23T10:53:15;13.20;98.80
12948;DHT22;6539;49.476;8.484;2024-03-23T10:56:04;13.00;99.10
12948;DHT22;6539;49.476;8.484;2024-03-23T10:58:53;12.80;99.10
12948;DHT22;6539;49.476;8.484;2024-03-23T11:04:48;13.20;96.70
12948;DHT22;6539;49.476;8.484;2024-03-23T11:07:34;13.10;96.50
12948;DHT22;6539;49.476;8.484;2024-03-23T11:10:30;12.50;97.30
12948;DHT22;6539;49.476;8.484;2024-03-23T11:13:23;13.10;97.60
12948;DHT22;6539;49.476;8.484;2024-03-23T11:16:24;13.80;96.40
12948;DHT22;6539;49.476;8.484;2024-03-23T11:19:37;14.20;96.40
12948;DHT22;6539;49.476;8.484;2024-03-23T11:22:55;14.30;94.40
12948;DHT22;6539;49.476;8.484;2024-03-23T11:25:41;13.90;95.80
12948;DHT22;6539;49.476;8.484;2024-03-23T11:28:28;13.90;95.50
12948;DHT22;6539;49.476;8.484;2024-03-23T11:31:14;13.90;95.40
12948;DHT22;6539;49.476;8.484;2024-03-23T11:34:04;13.90;95.50
12948;DHT22;6539;49.476;8.484;2024-03-23T11:37:05;13.80;95.50
12948;DHT22;6539;49.476;8.484;2024-03-23T11:39:54;13.70;96.00
12948;DHT22;6539;49.476;8.484;2024-03-23T11:42:40;13.30;99.00
12948;DHT22;6539;49.476;8.484;2024-03-23T11:45:26;12.20;99.90
12948;DHT22;6539;49.476;8.484;2024-03-23T11:48:14;11.40;99.90
12948;DHT22;6539;49.476;8.484;2024-03-23T11:51:05;10.90;99.90
12948;DHT22;6539;49.476;8.484;2024-03-23T11:53:53;10.60;99.90
12948;DHT22;6539;49.476;8.484;2024-03-23T11:56:40;10.30;99.90
12948;DHT22;6539;49.476;8.484;2024-03-23T11:59:33;10.20;99.90
12948;DHT22;6539;49.476;8.484;2024-03-23T12:02:19;10.30;99.90
12948;DHT22;6539;49.476;8.484;2024-03-23T12:05:15;10.30;99.90
12948;DHT22;6539;49.476;8.484;2024-03-23T12:11:15;10.50;99.90
12948;DHT22;6539;49.476;8.484;2024-03-23T12:14:02;10.50;99.90
12948;DHT22;6539;49.476;8.484;2024-03-23T12:16:50;10.50;99.90
12948;DHT22;6539;49.476;8.484;2024-03-23T12:19:43;10.50;99.90
12948;DHT22;6539;49.476;8.484;2024-03-23T12:22:30;10.60;99.90
12948;DHT22;6539;49.476;8.484;2024-03-23T12:25:16;10.50;99.90
12948;DHT22;6539;49.476;8.484;2024-03-23T12:28:03;10.70;99.90
12948;DHT22;6539;49.476;8.484;2024-03-23T12:30:54;10.60;99.90
12948;DHT22;6539;49.476;8.484;2024-03-23T12:33:40;10.60;99.90
12948;DHT22;6539;49.476;8.484;2024-03-23T12:36:29;10.50;99.90
12948;DHT22;6539;49.476;8.484;2024-03-23T12:39:17;10.20;99.90
12948;DHT22;6539;49.476;8.484;2024-03-23T12:42:04;10.20;99.90
12948;DHT22;6539;49.476;8.484;2024-03-23T12:44:55;10.40;99.90
12948;DHT22;6539;49.476;8.484;2024-03-23T12:47:41;10.30;99.90
12948;DHT22;6539;49.476;8.484;2024-03-23T12:50:27;10.40;99.90
12948;DHT22;6539;49.476;8.484;2024-03-23T12:53:16;10.20;99.90
12948;DHT22;6539;49.476;8.484;2024-03-23T12:56:04;10.10;99.90
12948;DHT22;6539;49.476;8.484;2024-03-23T12:58:50;10.20;99.90
12948;DHT22;6539;49.476;8.484;2024-03-23T13:01:37;9.00;99.90
12948;DHT22;6539;49.476;8.484;2024-03-23T13:04:27;8.20;99.90
12948;DHT22;6539;49.476;8.484;2024-03-23T13:07:13;7.30;99.90
12948;DHT22;6539;49.476;8.484;2024-03-23T13:10:07;7.00;99.90
12948;DHT22;6539;49.476;8.484;2024-03-23T13:12:56;6.60;99.90
12948;DHT22;6539;49.476;8.484;2024-03-23T13:15:48;6.70;99.90
12948;DHT22;6539;49.476;8.484;2024-03-23T13:18:35;7.20;99.90
12948;DHT22;6539;49.476;8.484;2024-03-23T13:21:21;7.90;99.90
12948;DHT22;6539;49.476;8.484;2024-03-23T13:24:08;8.10;99.90
12948;DHT22;6539;49.476;8.484;2024-03-23T13:26:55;8.30;99.90
12948;DHT22;6539;49.476;8.484;2024-03-23T13:29:42;8.10;99.90
12948;DHT22;6539;49.476;8.484;2024-03-23T13:32:28;8.40;99.90
12948;DHT22;6539;49.476;8.484;2024-03-23T13:35:16;9.40;99.90
12948;DHT22;6539;49.476;8.484;2024-03-23T13:38:02;10.20;99.90
12948;DHT22;6539;49.476;8.484;2024-03-23T13:40:51;11.10;99.90
12948;DHT22;6539;49.476;8.484;2024-03-23T13:43:38;12.20;99.90
12948;DHT22;6539;49.476;8.484;2024-03-23T13:46:24;13.90;99.90
12948;DHT22;6539;49.476;8.484;2024-03-23T13:49:30;12.20;99.90
12948;DHT22;6539;49.476;8.484;2024-03-23T13:52:22;10.60;99.90
12948;DHT22;6539;49.476;8.484;2024-03-23T13:55:14;11.00;99.90
12948;DHT22;6539;49.476;8.484;2024-03-23T13:58:05;13.60;99.90
12948;DHT22;6539;49.476;8.484;2024-03-23T14:00:52;13.60;99.90
12948;DHT22;6539;49.476;8.484;2024-03-23T14:03:38;12.20;99.90
12948;DHT22;6539;49.476;8.484;2024-03-23T14:06:27;11.40;99.90
12948;DHT22;6539;49.476;8.484;2024-03-23T14:09:13;10.90;99.90
12948;DHT22;6539;49.476;8.484;2024-03-23T14:12:03;10.80;99.90
12948;DHT22;6539;49.476;8.484;2024-03-23T14:14:49;10.70;99.90
12948;DHT22;6539;49.476;8.484;2024-03-23T14:17:35;10.60;99.90
12948;DHT22;6539;49.476;8.484;2024-03-23T14:20:22;9.80;99.90
12948;DHT22;6539;49.476;8.484;2024-03-23T14:23:11;9.40;99.90
12948;DHT22;6539;49.476;8.484;2024-03-23T14:25:57;10.00;99.90
12948;DHT22;6539;49.476;8.484;2024-03-23T14:28:49;11.10;99.90
12948;DHT22;6539;49.476;8.484;2024-03-23T14:31:36;13.50;99.90
12948;DHT22;6539;49.476;8.484;2024-03-23T14:34:28;14.90;99.90
12948;DHT22;6539;49.476;8.484;2024-03-23T14:37:14;14.20;99.90
12948;DHT22;6539;49.476;8.484;2024-03-23T14:40:06;13.60;99.90
12948;DHT22;6539;49.476;8.484;2024-03-23T14:42:54;13.00;99.90
12948;DHT22;6539;49.476;8.484;2024-03-23T14:48:54;11.50;99.90
12948;DHT22;6539;49.476;8.484;2024-03-23T14:51:47;11.30;99.90
12948;DHT22;6539;49.476;8.484;2024-03-23T14:54:33;11.10;99.90
12948;DHT22;6539;49.476;8.484;2024-03-23T14:57:24;10.80;99.90
12948;DHT22;6539;49.476;8.484;2024-03-23T15:00:11;10.90;99.90
12948;DHT22;6539;49.476;8.484;2024-03-23T15:02:57;11.00;99.90
12948;DHT22;6539;49.476;8.484;2024-03-23T15:05:54;10.90;99.90
12948;DHT22;6539;49.476;8.484;2024-03-23T15:08:43;11.20;99.90
12948;DHT22;6539;49.476;8.484;2024-03-23T15:11:29;11.10;99.90
12948;DHT22;6539;49.476;8.484;2024-03-23T15:14:15;11.10;99.90
12948;DHT22;6539;49.476;8.484;2024-03-23T15:17:01;10.70;99.90
12948;DHT22;6539;49.476;8.484;2024-03-23T15:19:52;10.60;99.90
12948;DHT22;6539;49.476;8.484;2024-03-23T15:22:39;10.40;99.90
12948;DHT22;6539;49.476;8.484;2024-03-23T15:25:25;10.30;99.90
12948;DHT22;6539;49.476;8.484;2024-03-23T15:28:11;10.40;99.90
12948;DHT22;6539;49.476;8.484;2024-03-23T15:30:59;10.30;99.90
12948;DHT22;6539;49.476;8.484;2024-03-23T15:33:48;10.30;99.90
12948;DHT22;6539;49.476;8.484;2024-03-23T15:36:39;10.30;99.90
12948;DHT22;6539;49.476;8.484;2024-03-23T15:39:25;10.20;99.90
12948;DHT22;6539;49.476;8.484;2024-03-23T15:42:14;10.10;99.90
12948;DHT22;6539;49.476;8.484;2024-03-23T15:45:00;9.90;99.90
12948;DHT22;6539;49.476;8.484;2024-03-23T15:47:48;9.70;99.90
12948;DHT22;6539;49.476;8.484;2024-03-23T15:50:37;9.60;99.90
12948;DHT22;6539;49.476;8.484;2024-03-23T15:53:24;9.10;99.90
12948;DHT22;6539;49.476;8.484;2024-03-23T15:56:14;8.70;99.90
12948;DHT22;6539;49.476;8.484;2024-03-23T15:59:00;8.20;99.90
12948;DHT22;6539;49.476;8.484;2024-03-23T16:01:51;7.90;99.90
12948;DHT22;6539;49.476;8.484;2024-03-23T16:04:39;7.70;99.90
12948;DHT22;6539;49.476;8.484;2024-03-23T16:07:25;7.70;99.90
12948;DHT22;6539;49.476;8.484;2024-03-23T16:10:13;7.80;99.90
12948;DHT22;6539;49.476;8.484;2024-03-23T16:13:00;8.20;99.90
12948;DHT22;6539;49.476;8.484;2024-03-23T16:15:57;8.10;99.90
12948;DHT22;6539;49.476;8.484;2024-03-23T16:18:43;8.30;99.90
12948;DHT22;6539;49.476;8.484;2024-03-23T16:21:29;8.80;99.90
12948;DHT22;6539;49.476;8.484;2024-03-23T16:24:16;8.70;99.90
12948;DHT22;6539;49.476;8.484;2024-03-23T16:27:02;8.40;99.90
12948;DHT22;6539;49.476;8.484;2024-03-23T16:29:51;8.10;99.90
12948;DHT22;6539;49.476;8.484;2024-03-23T16:32:42;8.00;99.90
12948;DHT22;6539;49.476;8.484;2024-03-23T16:35:28;7.70;99.90
12948;DHT22;6539;49.476;8.484;2024-03-23T16:38:18;7.80;99.90
12948;DHT22;6539;49.476;8.484;2024-03-23T16:41:09;7.90;99.90
12948;DHT22;6539;49.476;8.484;2024-03-23T16:43:58;7.80;99.90
12948;DHT22;6539;49.476;8.484;2024-03-23T16:46:44;7.70;99.90
12948;DHT22;6539;49.476;8.484;2024-03-23T16:49:31;7.70;99.90
12948;DHT22;6539;49.476;8.484;2024-03-23T16:52:17;7.70;99.90
12948;DHT22;6539;49.476;8.484;2024-03-23T16:55:08;7.70;99.90
12948;DHT22;6539;49.476;8.484;2024-03-23T16:57:58;7.60;99.90
12948;DHT22;6539;49.476;8.484;2024-03-23T17:00:44;7.50;99.90
12948;DHT22;6539;49.476;8.484;2024-03-23T17:03:31;7.50;99.90
12948;DHT22;6539;49.476;8.484;2024-03-23T17:06:18;7.40;99.90
12948;DHT22;6539;49.476;8.484;2024-03-23T17:09:05;7.40;99.90
12948;DHT22;6539;49.476;8.484;2024-03-23T17:11:52;7.30;99.90
12948;DHT22;6539;49.476;8.484;2024-03-23T17:14:38;7.30;99.90
12948;DHT22;6539;49.476;8.484;2024-03-23T17:17:27;7.30;99.90
12948;DHT22;6539;49.476;8.484;2024-03-23T17:20:17;7.30;99.90
12948;DHT22;6539;49.476;8.484;2024-03-23T17:23:03;7.20;99.90
12948;DHT22;6539;49.476;8.484;2024-03-23T17:25:50;7.10;99.90
12948;DHT22;6539;49.476;8.484;2024-03-23T17:28:36;7.00;99.90
12948;DHT22;6539;49.476;8.484;2024-03-23T17:31:22;6.90;99.90
12948;DHT22;6539;49.476;8.484;2024-03-23T17:34:08;6.90;99.90
12948;DHT22;6539;49.476;8.484;2024-03-23T17:36:54;6.80;99.90
12948;DHT22;6539;49.476;8.484;2024-03-23T17:39:41;6.80;99.90
12948;DHT22;6539;49.476;8.484;2024-03-23T17:42:27;6.70;99.90
12948;DHT22;6539;49.476;8.484;2024-03-23T17:45:16;6.90;99.90
12948;DHT22;6539;49.476;8.484;2024-03-23T17:48:05;7.10;99.90
12948;DHT22;6539;49.476;8.484;2024-03-23T17:51:04;7.30;99.90
12948;DHT22;6539;49.476;8.484;2024-03-23T17:53:52;7.30;99.90
12948;DHT22;6539;49.476;8.484;2024-03-23T17:56:39;7.40;99.90
12948;DHT22;6539;49.476;8.484;2024-03-23T17:59:25;7.50;99.90
12948;DHT22;6539;49.476;8.484;2024-03-23T18:02:11;7.50;99.90
12948;DHT22;6539;49.476;8.484;2024-03-23T18:04:57;7.60;99.90
12948;DHT22;6539;49.476;8.484;2024-03-23T18:07:45;7.50;99.90
12948;DHT22;6539;49.476;8.484;2024-03-23T18:10:34;7.50;99.90
12948;DHT22;6539;49.476;8.484;2024-03-23T18:13:22;7.30;99.90
12948;DHT22;6539;49.476;8.484;2024-03-23T18:16:08;7.30;99.90
12948;DHT22;6539;49.476;8.484;2024-03-23T18:18:54;7.20;99.90
12948;DHT22;6539;49.476;8.484;2024-03-23T18:21:44;7.10;99.90
12948;DHT22;6539;49.476;8.484;2024-03-23T18:24:30;7.00;99.90
12948;DHT22;6539;49.476;8.484;2024-03-23T18:27:16;7.00;99.90
12948;DHT22;6539;49.476;8.484;2024-03-23T18:30:02;7.00;99.90
12948;DHT22;6539;49.476;8.484;2024-03-23T18:32:51;7.00;99.90
12948;DHT22;6539;49.476;8.484;2024-03-23T18:35:37;6.80;99.90
12948;DHT22;6539;49.476;8.484;2024-03-23T18:38:23;6.80;99.90
12948;DHT22;6539;49.476;8.484;2024-03-23T18:41:11;6.80;99.90
12948;DHT22;6539;49.476;8.484;2024-03-23T18:43:57;6.80;99.90
12948;DHT22;6539;49.476;8.484;2024-03-23T18:46:50;6.80;99.90
12948;DHT22;6539;49.476;8.484;2024-03-23T18:49:36;6.80;99.90
12948;DHT22;6539;49.476;8.484;2024-03-23T18:52:22;6.80;99.90
12948;DHT22;6539;49.476;8.484;2024-03-23T18:55:08;6.90;99.90
12948;DHT22;6539;49.476;8.484;2024-03-23T18:57:55;6.90;99.90
12948;DHT22;6539;49.476;8.484;2024-03-23T19:00:42;7.00;99.90
12948;DHT22;6539;49.476;8.484;2024-03-23T19:03:29;6.90;99.90
12948;DHT22;6539;49.476;8.484;2024-03-23T19:06:16;6.90;99.90
12948;DHT22;6539;49.476;8.484;2024-03-23T19:09:02;7.00;99.90
12948;DHT22;6539;49.476;8.484;2024-03-23T19:11:48;6.90;99.90